Terminal Aerodrome Forecast
Issued by NWS North Platte, NE

Home | Current Version | Previous Version | Text Only | Print | Product List | Glossary On
Versions: 1 2 3 4 5 6 7 8 9 10 11 12 13 14 15 16
000
FTUS43 KLBF 250703 AAA
TAFLBF
TAF AMD
KLBF 250703Z 2507/2606 07005KT P6SM FEW250
     FM250900 VRB03KT P6SM BKN100
     FM251400 10004KT P6SM SCT100
     FM252100 16006KT P6SM SCT060 SCT250
     FM260200 VRB03KT P6SM BKN250=

USA.gov is the U.S. government's official web portal to all federal, state and local government web resources and services.